createdAt,value
2018-03-06T00:00:01.698Z,58.40
2018-03-06T00:02:29.159Z,58.50
2018-03-06T00:04:56.621Z,58.40
2018-03-06T00:07:24.081Z,58.40
2018-03-06T00:09:51.506Z,58.30
2018-03-06T00:12:18.960Z,58.40
2018-03-06T00:14:46.413Z,58.60
2018-03-06T00:17:13.854Z,58.70
2018-03-06T00:19:41.892Z,58.90
2018-03-06T00:22:09.320Z,59.00
2018-03-06T00:24:36.759Z,59.10
2018-03-06T00:27:04.222Z,59.00
2018-03-06T00:29:31.656Z,59.10
2018-03-06T00:31:59.096Z,58.90
2018-03-06T00:34:26.552Z,59.00
2018-03-06T00:36:54.093Z,58.90
2018-03-06T00:39:21.536Z,59.40
2018-03-06T00:41:48.973Z,59.90
2018-03-06T00:44:16.499Z,59.30
2018-03-06T00:46:43.930Z,59.20
2018-03-06T00:49:11.376Z,59.20
2018-03-06T00:51:38.821Z,59.30
2018-03-06T00:54:06.247Z,59.20
2018-03-06T00:56:33.703Z,59.00
2018-03-06T00:59:01.138Z,59.00
2018-03-06T01:01:28.579Z,58.90
2018-03-06T01:03:56.036Z,59.00
2018-03-06T01:06:24.260Z,59.00
2018-03-06T01:08:51.697Z,59.00
2018-03-06T01:11:19.156Z,59.00
2018-03-06T01:13:46.601Z,59.00
2018-03-06T01:16:14.025Z,59.00
2018-03-06T01:18:42.237Z,59.40
2018-03-06T01:21:09.925Z,59.30
2018-03-06T01:23:37.641Z,59.60
2018-03-06T01:26:05.067Z,59.80
2018-03-06T01:28:32.507Z,59.80
2018-03-06T01:30:59.941Z,59.70
2018-03-06T01:33:27.393Z,59.90
2018-03-06T01:35:54.839Z,59.90
2018-03-06T01:38:22.310Z,59.80
2018-03-06T01:40:49.764Z,60.00
2018-03-06T01:43:17.287Z,59.60
2018-03-06T01:45:44.723Z,59.40
2018-03-06T01:48:12.164Z,59.50
2018-03-06T01:50:39.620Z,59.80
2018-03-06T01:53:07.069Z,59.60
2018-03-06T01:55:34.511Z,59.20
2018-03-06T01:58:01.946Z,59.50
2018-03-06T02:00:29.384Z,59.30
2018-03-06T02:02:57.599Z,58.80
2018-03-06T02:05:25.057Z,58.60
2018-03-06T02:07:52.504Z,58.60
2018-03-06T02:10:20.151Z,58.40
2018-03-06T02:12:47.587Z,58.40
2018-03-06T02:15:15.813Z,58.20
2018-03-06T02:17:43.240Z,58.10
2018-03-06T02:20:10.694Z,58.20
2018-03-06T02:22:38.147Z,58.20
2018-03-06T02:25:05.583Z,58.10
2018-03-06T02:27:33.972Z,58.50
2018-03-06T02:30:02.198Z,58.30
2018-03-06T02:32:29.625Z,58.30
2018-03-06T02:34:57.057Z,58.20
2018-03-06T02:37:25.275Z,58.70
2018-03-06T02:39:52.712Z,58.70
2018-03-06T02:42:20.155Z,58.40
2018-03-06T02:44:47.599Z,58.40
2018-03-06T02:47:15.794Z,58.40
2018-03-06T02:49:43.231Z,58.40
2018-03-06T02:52:11.241Z,58.30
2018-03-06T02:54:38.689Z,58.40
2018-03-06T02:57:06.107Z,58.50
2018-03-06T02:59:34.310Z,58.60
2018-03-06T03:02:01.733Z,58.50
2018-03-06T03:04:29.163Z,58.50
2018-03-06T03:06:56.604Z,58.70
2018-03-06T03:09:24.055Z,58.70
2018-03-06T03:11:51.566Z,58.80
2018-03-06T03:14:19.007Z,58.90
2018-03-06T03:16:46.435Z,59.10
2018-03-06T03:19:13.883Z,59.10
2018-03-06T03:21:41.315Z,59.20
2018-03-06T03:24:08.761Z,59.10
2018-03-06T03:26:36.952Z,58.50
2018-03-06T03:29:04.376Z,58.40
2018-03-06T03:31:31.830Z,58.80
2018-03-06T03:33:59.267Z,58.90
2018-03-06T03:36:26.703Z,59.20
2018-03-06T03:38:54.154Z,58.90
2018-03-06T03:41:21.584Z,59.00
2018-03-06T03:43:49.807Z,58.90
2018-03-06T03:46:18.019Z,58.80
2018-03-06T03:48:46.235Z,59.00
2018-03-06T03:51:13.677Z,58.90
2018-03-06T03:53:41.127Z,58.70
2018-03-06T03:56:09.120Z,58.50
2018-03-06T03:58:36.536Z,58.10
2018-03-06T04:01:04.762Z,57.90
2018-03-06T04:03:32.200Z,57.80
2018-03-06T04:05:59.659Z,57.70
2018-03-06T04:08:27.110Z,57.80
2018-03-06T04:10:54.555Z,57.90
2018-03-06T04:13:22.001Z,58.00
2018-03-06T04:15:49.445Z,58.00
2018-03-06T04:18:16.891Z,57.90
2018-03-06T04:20:44.328Z,57.90
2018-03-06T04:23:11.771Z,57.90
2018-03-06T04:25:39.211Z,58.70
2018-03-06T04:28:06.643Z,58.60
2018-03-06T04:30:34.099Z,59.30
2018-03-06T04:33:02.292Z,59.50
2018-03-06T04:35:29.763Z,59.40
2018-03-06T04:37:57.191Z,59.30
2018-03-06T04:40:24.619Z,59.10
2018-03-06T04:42:52.055Z,58.40
2018-03-06T04:45:19.492Z,57.90
2018-03-06T04:47:46.938Z,57.70
2018-03-06T04:50:14.371Z,58.00
2018-03-06T04:52:41.815Z,58.10
2018-03-06T04:55:10.032Z,57.70
2018-03-06T04:57:37.489Z,57.70
2018-03-06T05:00:04.931Z,57.60
2018-03-06T05:02:32.389Z,57.90
2018-03-06T05:04:59.833Z,57.90
2018-03-06T05:07:27.284Z,58.00
2018-03-06T05:09:54.699Z,58.10
2018-03-06T05:12:22.147Z,58.10
2018-03-06T05:14:49.603Z,58.30
2018-03-06T05:17:17.059Z,58.50
2018-03-06T05:19:44.524Z,59.20
2018-03-06T05:22:12.041Z,59.60
2018-03-06T05:24:39.464Z,59.00
2018-03-06T05:27:06.907Z,59.50
2018-03-06T05:29:34.365Z,59.40
2018-03-06T05:32:01.803Z,59.10
2018-03-06T05:34:29.257Z,58.70
2018-03-06T05:36:56.723Z,58.40
2018-03-06T05:39:24.160Z,58.60
2018-03-06T05:41:51.615Z,58.30
2018-03-06T05:44:19.161Z,58.60
2018-03-06T05:46:46.589Z,59.00
2018-03-06T05:49:14.025Z,58.80
2018-03-06T05:51:41.469Z,59.30
2018-03-06T05:54:08.939Z,59.90
2018-03-06T05:56:36.389Z,60.00
2018-03-06T05:59:03.829Z,61.00
2018-03-06T06:01:31.277Z,60.50
2018-03-06T06:03:58.741Z,60.20
2018-03-06T06:06:27.796Z,60.50
2018-03-06T06:08:55.233Z,60.20
2018-03-06T06:11:22.684Z,60.30
2018-03-06T06:13:50.138Z,59.80
2018-03-06T06:16:17.596Z,59.80
2018-03-06T06:18:45.051Z,60.70
2018-03-06T06:21:12.503Z,60.50
2018-03-06T06:23:39.935Z,61.90
2018-03-06T06:26:07.374Z,61.20
2018-03-06T06:28:34.903Z,60.50
2018-03-06T06:31:02.347Z,60.10
2018-03-06T06:33:29.797Z,59.70
2018-03-06T06:35:57.275Z,59.20
2018-03-06T06:38:24.715Z,59.20
2018-03-06T06:40:52.173Z,59.30
2018-03-06T06:43:19.632Z,59.80
2018-03-06T06:45:47.080Z,60.40
2018-03-06T06:48:14.532Z,59.70
2018-03-06T06:50:42.021Z,59.00
2018-03-06T06:53:09.451Z,59.40
2018-03-06T06:55:36.913Z,59.10
2018-03-06T06:58:04.339Z,58.80
2018-03-06T07:00:31.791Z,58.70
2018-03-06T07:05:33.472Z,58.10
2018-03-06T07:08:02.328Z,57.80
2018-03-06T07:10:31.912Z,56.80
2018-03-06T07:12:59.327Z,56.70
2018-03-06T07:15:26.811Z,56.30
2018-03-06T07:17:54.230Z,55.70
2018-03-06T07:20:21.675Z,56.60
2018-03-06T07:22:49.132Z,57.10
2018-03-06T07:25:16.636Z,57.00
2018-03-06T07:27:44.087Z,56.40
2018-03-06T07:30:11.545Z,55.50
2018-03-06T07:32:38.993Z,55.20
2018-03-06T07:35:06.486Z,54.90
2018-03-06T07:37:34.691Z,54.20
2018-03-06T07:40:02.196Z,54.10
2018-03-06T07:42:30.250Z,54.00
2018-03-06T07:44:57.983Z,54.00
2018-03-06T07:47:25.409Z,53.90
2018-03-06T07:49:53.179Z,53.50
2018-03-06T07:52:30.984Z,54.00
2018-03-06T07:55:17.949Z,55.00
2018-03-06T07:57:50.413Z,55.20
2018-03-06T08:03:40.248Z,54.80
2018-03-06T08:06:21.458Z,55.20
2018-03-06T08:09:16.704Z,56.10
2018-03-06T08:11:54.612Z,56.80
2018-03-06T08:14:41.722Z,57.80
2018-03-06T08:20:52.803Z,57.60
2018-03-06T08:32:11.949Z,55.90
2018-03-06T08:34:53.762Z,55.80
2018-03-06T08:37:52.995Z,55.20
2018-03-06T08:40:47.649Z,56.40
2018-03-06T08:46:29.845Z,56.90
2018-03-06T08:49:18.538Z,57.30
2018-03-06T09:01:16.074Z,55.90
2018-03-06T09:03:59.822Z,55.10
2018-03-06T09:06:36.917Z,54.20
2018-03-06T09:12:01.653Z,53.90
2018-03-06T09:14:37.700Z,54.40
2018-03-06T09:17:20.138Z,54.40
2018-03-06T09:20:06.623Z,54.30
2018-03-06T09:22:49.753Z,55.60
2018-03-06T09:46:40.784Z,53.00
2018-03-06T09:49:08.248Z,52.50
2018-03-06T09:51:35.746Z,51.00
2018-03-06T09:54:03.462Z,50.00
2018-03-06T09:56:31.705Z,49.60
2018-03-06T09:58:59.217Z,49.60
2018-03-06T10:01:26.677Z,49.30
2018-03-06T10:06:21.996Z,48.90
2018-03-06T10:08:49.444Z,48.80
2018-03-06T10:11:16.937Z,49.70
2018-03-06T10:13:47.257Z,52.00
2018-03-06T10:16:14.737Z,51.70
2018-03-06T10:18:42.627Z,51.60
2018-03-06T10:21:10.960Z,50.50
2018-03-06T10:23:38.395Z,50.30
2018-03-06T10:26:05.983Z,50.70
2018-03-06T10:28:33.556Z,50.80
2018-03-06T10:31:03.924Z,51.40
2018-03-06T10:33:31.396Z,51.50
2018-03-06T10:35:58.869Z,51.80
2018-03-06T10:38:26.390Z,51.30
2018-03-06T10:40:53.907Z,51.30
2018-03-06T10:43:21.436Z,52.00
2018-03-06T10:45:48.876Z,51.60
2018-03-06T10:48:16.457Z,51.80
2018-03-06T10:50:43.882Z,51.70
2018-03-06T10:53:11.377Z,51.60
2018-03-06T10:55:38.980Z,51.30
2018-03-06T10:58:06.434Z,50.90
2018-03-06T11:00:39.459Z,51.60
2018-03-06T11:03:06.955Z,51.80
2018-03-06T11:05:34.663Z,51.80
2018-03-06T11:08:02.217Z,51.90
2018-03-06T11:10:30.819Z,52.60
2018-03-06T11:12:58.272Z,52.50
2018-03-06T11:15:25.781Z,52.70
2018-03-06T11:17:53.200Z,52.50
2018-03-06T11:20:20.668Z,52.50
2018-03-06T11:22:48.155Z,52.30
2018-03-06T11:25:15.621Z,52.10
2018-03-06T11:27:43.081Z,51.90
2018-03-06T11:30:10.539Z,51.60
2018-03-06T11:32:37.995Z,51.80
2018-03-06T11:35:05.476Z,52.00
2018-03-06T11:37:32.968Z,51.90
2018-03-06T11:40:00.455Z,52.00
2018-03-06T11:42:27.910Z,51.70
2018-03-06T11:44:55.451Z,51.60
2018-03-06T11:47:22.924Z,51.30
2018-03-06T11:49:50.456Z,52.30
2018-03-06T11:52:17.898Z,52.00
2018-03-06T11:54:45.356Z,51.70
2018-03-06T11:57:12.815Z,51.50
2018-03-06T11:59:40.270Z,51.20
2018-03-06T12:02:07.786Z,51.00
2018-03-06T12:04:35.198Z,50.70
2018-03-06T12:07:02.644Z,50.70
2018-03-06T12:09:30.999Z,50.50
2018-03-06T12:11:58.518Z,51.40
2018-03-06T12:14:26.218Z,51.60
2018-03-06T12:16:54.415Z,51.50
2018-03-06T12:19:22.083Z,51.50
2018-03-06T12:21:49.520Z,52.00
2018-03-06T12:24:17.027Z,51.50
2018-03-06T12:26:44.511Z,51.00
2018-03-06T12:29:12.265Z,50.50
2018-03-06T12:31:39.727Z,50.10
2018-03-06T12:34:07.180Z,50.00
2018-03-06T12:36:34.681Z,50.00
2018-03-06T12:39:02.194Z,50.20
2018-03-06T12:41:29.708Z,50.20
2018-03-06T12:43:57.484Z,50.50
2018-03-06T12:46:24.947Z,51.30
2018-03-06T12:48:52.516Z,51.00
2018-03-06T12:51:19.970Z,51.20
2018-03-06T12:53:47.629Z,51.10
2018-03-06T12:56:15.089Z,50.70
2018-03-06T12:58:42.583Z,50.40
2018-03-06T13:01:10.089Z,49.50
2018-03-06T13:03:37.544Z,49.30
2018-03-06T13:06:05.048Z,49.00
2018-03-06T13:08:32.495Z,47.80
2018-03-06T13:11:00.005Z,47.20
2018-03-06T13:13:27.528Z,47.10
2018-03-06T13:15:55.041Z,47.40
2018-03-06T13:18:23.344Z,47.30
2018-03-06T13:20:50.874Z,48.10
2018-03-06T13:23:18.328Z,48.60
2018-03-06T13:25:45.876Z,49.10
2018-03-06T13:28:13.353Z,49.50
2018-03-06T13:30:40.787Z,49.40
2018-03-06T13:33:08.348Z,49.00
2018-03-06T13:35:35.840Z,47.60
2018-03-06T13:38:04.424Z,47.50
2018-03-06T13:40:31.897Z,47.50
2018-03-06T13:43:00.853Z,47.50
2018-03-06T13:45:28.525Z,47.40
2018-03-06T13:47:56.108Z,47.20
2018-03-06T13:50:23.589Z,46.50
2018-03-06T13:52:51.076Z,46.00
2018-03-06T13:55:18.667Z,46.00
2018-03-06T13:57:46.362Z,45.90
2018-03-06T14:00:13.842Z,45.60
2018-03-06T14:02:42.108Z,45.10
2018-03-06T14:05:09.844Z,45.10
2018-03-06T14:07:37.352Z,44.90
2018-03-06T14:10:04.810Z,44.50
2018-03-06T14:12:32.259Z,44.10
2018-03-06T14:14:59.900Z,43.10
2018-03-06T14:17:27.365Z,42.30
2018-03-06T14:19:54.856Z,41.70
2018-03-06T14:22:22.296Z,41.70
2018-03-06T14:24:49.830Z,41.60
2018-03-06T14:27:17.250Z,41.60
2018-03-06T14:29:44.768Z,42.10
2018-03-06T14:32:12.464Z,42.50
2018-03-06T14:34:39.923Z,42.80
2018-03-06T14:37:07.888Z,43.20
2018-03-06T14:39:35.392Z,43.30
2018-03-06T14:42:02.849Z,43.60
2018-03-06T14:44:30.315Z,43.70
2018-03-06T14:46:57.788Z,43.60
2018-03-06T14:49:25.235Z,43.40
2018-03-06T14:51:52.737Z,43.10
2018-03-06T14:54:20.241Z,43.40
2018-03-06T14:56:47.844Z,43.60
2018-03-06T14:59:15.606Z,44.00
2018-03-06T15:01:43.097Z,44.70
2018-03-06T15:04:10.626Z,45.60
2018-03-06T15:06:38.137Z,46.80
2018-03-06T15:09:05.579Z,47.10
2018-03-06T15:11:33.042Z,47.10
2018-03-06T15:14:00.611Z,47.30
2018-03-06T15:16:28.566Z,48.20
2018-03-06T15:18:56.058Z,48.00
2018-03-06T15:21:23.598Z,48.00
2018-03-06T15:23:52.476Z,48.40
2018-03-06T15:26:20.051Z,48.40
2018-03-06T15:28:47.534Z,48.60
2018-03-06T15:31:15.145Z,48.60
2018-03-06T15:33:42.951Z,48.50
2018-03-06T15:36:10.734Z,48.90
2018-03-06T15:38:38.437Z,49.30
2018-03-06T15:41:05.954Z,49.40
2018-03-06T15:43:33.554Z,49.40
2018-03-06T15:46:01.115Z,49.60
2018-03-06T15:48:28.830Z,49.90
2018-03-06T15:50:56.379Z,50.20
2018-03-06T15:53:24.005Z,50.50
2018-03-06T15:55:51.523Z,50.60
2018-03-06T15:58:19.025Z,52.10
2018-03-06T16:00:46.483Z,52.50
2018-03-06T16:03:14.097Z,52.80
2018-03-06T16:05:41.681Z,52.90
2018-03-06T16:08:09.140Z,53.00
2018-03-06T16:10:36.638Z,53.60
2018-03-06T16:13:04.120Z,54.90
2018-03-06T16:15:31.732Z,55.50
2018-03-06T16:17:59.244Z,54.90
2018-03-06T16:20:26.717Z,54.70
2018-03-06T16:22:54.198Z,54.40
2018-03-06T16:25:21.825Z,54.50
2018-03-06T16:27:49.269Z,54.50
2018-03-06T16:30:16.708Z,54.60
2018-03-06T16:32:44.196Z,54.60
2018-03-06T16:35:12.472Z,54.70
2018-03-06T16:37:40.448Z,55.10
2018-03-06T16:40:07.884Z,55.70
2018-03-06T16:42:35.593Z,56.10
2018-03-06T16:45:03.889Z,56.40
2018-03-06T16:47:31.400Z,56.50
2018-03-06T16:49:58.994Z,56.50
2018-03-06T16:52:26.480Z,56.70
2018-03-06T16:54:54.019Z,57.70
2018-03-06T16:57:21.576Z,58.60
2018-03-06T16:59:49.298Z,58.60
2018-03-06T17:02:16.855Z,59.50
2018-03-06T17:04:44.419Z,60.10
2018-03-06T17:07:12.100Z,60.00
2018-03-06T17:09:39.595Z,59.90
2018-03-06T17:12:07.090Z,59.80
2018-03-06T17:14:47.327Z,60.60
2018-03-06T17:17:14.782Z,60.70
2018-03-06T17:19:42.266Z,60.80
2018-03-06T17:22:09.709Z,61.60
2018-03-06T17:24:37.218Z,62.00
2018-03-06T17:27:04.723Z,62.50
2018-03-06T17:29:32.179Z,62.80
2018-03-06T17:31:59.646Z,63.30
2018-03-06T17:34:27.076Z,64.00
2018-03-06T17:36:54.589Z,64.10
2018-03-06T17:39:22.082Z,64.10
2018-03-06T17:41:49.533Z,63.60
2018-03-06T17:44:17.741Z,63.90
2018-03-06T17:46:45.246Z,63.80
2018-03-06T17:49:12.961Z,63.60
2018-03-06T17:51:41.573Z,63.20
2018-03-06T17:54:09.072Z,62.40
2018-03-06T17:56:36.551Z,62.00
2018-03-06T17:59:04.004Z,62.20
2018-03-06T18:01:31.494Z,61.80
2018-03-06T18:03:58.939Z,61.30
2018-03-06T18:06:26.391Z,61.00
2018-03-06T18:08:53.881Z,60.90
2018-03-06T18:11:21.355Z,60.60
2018-03-06T18:13:48.864Z,60.20
2018-03-06T18:16:16.335Z,60.10
2018-03-06T18:18:43.787Z,60.30
2018-03-06T18:21:11.223Z,60.50
2018-03-06T18:23:38.707Z,60.50
2018-03-06T18:26:06.882Z,60.40
2018-03-06T18:28:34.445Z,61.00
2018-03-06T18:31:01.872Z,62.60
2018-03-06T18:33:29.341Z,63.50
2018-03-06T18:35:56.776Z,63.40
2018-03-06T18:38:24.236Z,63.90
2018-03-06T18:40:51.675Z,63.90
2018-03-06T18:43:19.147Z,63.10
2018-03-06T18:45:46.653Z,63.10
2018-03-06T18:48:14.137Z,62.60
2018-03-06T18:50:53.331Z,62.80
2018-03-06T18:53:20.792Z,62.70
2018-03-06T18:55:48.245Z,63.00
2018-03-06T18:58:15.904Z,62.80
2018-03-06T19:01:03.955Z,65.10
2018-03-06T19:03:43.191Z,64.40
2018-03-06T19:06:22.560Z,64.50
2018-03-06T19:08:49.979Z,64.50
2018-03-06T19:11:17.787Z,65.70
2018-03-06T19:13:45.242Z,65.00
2018-03-06T19:16:12.739Z,65.50
2018-03-06T19:18:40.197Z,65.10
2018-03-06T19:21:07.647Z,64.60
2018-03-06T19:23:35.111Z,64.10
2018-03-06T19:26:02.810Z,64.10
2018-03-06T19:28:30.276Z,63.60
2018-03-06T19:30:57.944Z,63.90
2018-03-06T19:33:25.358Z,64.10
2018-03-06T19:35:52.928Z,64.40
2018-03-06T19:38:20.375Z,64.70
2018-03-06T19:40:48.349Z,65.70
2018-03-06T19:43:15.762Z,65.40
2018-03-06T19:45:44.224Z,65.10
2018-03-06T19:48:11.668Z,65.10
2018-03-06T19:50:39.126Z,65.00
2018-03-06T19:53:06.631Z,64.70
2018-03-06T19:55:34.059Z,64.70
2018-03-06T19:58:01.533Z,64.70
2018-03-06T20:00:28.960Z,65.90
2018-03-06T20:02:56.459Z,65.50
2018-03-06T20:05:24.523Z,64.90
2018-03-06T20:07:52.009Z,65.00
2018-03-06T20:10:19.440Z,65.70
2018-03-06T20:12:46.870Z,65.40
2018-03-06T20:15:16.264Z,65.70
2018-03-06T20:17:44.020Z,65.90
2018-03-06T20:20:11.507Z,66.60
2018-03-06T20:22:38.991Z,67.10
2018-03-06T20:25:12.424Z,67.50
2018-03-06T20:27:39.837Z,67.10
2018-03-06T20:30:07.292Z,67.10
2018-03-06T20:32:41.221Z,68.00
2018-03-06T20:35:08.660Z,68.00
2018-03-06T20:37:36.116Z,68.20
2018-03-06T20:40:09.256Z,68.30
2018-03-06T20:42:36.947Z,67.80
2018-03-06T20:45:04.404Z,68.30
2018-03-06T20:47:31.875Z,68.10
2018-03-06T20:49:59.364Z,67.50
2018-03-06T20:52:26.823Z,67.60
2018-03-06T20:54:59.915Z,67.40
2018-03-06T20:57:27.380Z,68.40
2018-03-06T20:59:54.832Z,67.90
2018-03-06T21:02:22.288Z,68.00
2018-03-06T21:04:49.771Z,67.50
2018-03-06T21:07:18.027Z,68.10
2018-03-06T21:09:45.475Z,69.00
2018-03-06T21:12:13.131Z,69.30
2018-03-06T21:14:40.696Z,69.90
2018-03-06T21:17:08.131Z,70.50
2018-03-06T21:19:35.596Z,70.10
2018-03-06T21:22:03.043Z,68.90
2018-03-06T21:24:30.476Z,68.20
2018-03-06T21:26:58.180Z,67.80
2018-03-06T21:29:26.487Z,68.30
2018-03-06T21:31:53.990Z,69.70
2018-03-06T21:34:21.399Z,69.10
2018-03-06T21:36:49.045Z,69.40
2018-03-06T21:39:16.493Z,69.00
2018-03-06T21:41:43.935Z,69.40
2018-03-06T21:44:11.381Z,68.90
2018-03-06T21:46:38.848Z,68.70
2018-03-06T21:49:06.287Z,69.20
2018-03-06T21:51:33.739Z,69.40
2018-03-06T21:54:01.216Z,69.70
2018-03-06T21:56:28.688Z,69.00
2018-03-06T21:58:56.148Z,68.80
2018-03-06T22:01:24.219Z,68.90
2018-03-06T22:03:51.660Z,68.70
2018-03-06T22:06:19.116Z,68.50
2018-03-06T22:08:46.573Z,69.40
2018-03-06T22:11:14.015Z,69.70
2018-03-06T22:13:41.520Z,69.70
2018-03-06T22:16:08.980Z,69.90
2018-03-06T22:18:36.444Z,70.60
2018-03-06T22:21:03.901Z,71.90
2018-03-06T22:23:31.349Z,71.70
2018-03-06T22:25:58.829Z,71.80
2018-03-06T22:28:26.283Z,71.70
2018-03-06T22:30:53.765Z,72.40
2018-03-06T22:33:21.196Z,72.20
2018-03-06T22:35:48.651Z,72.50
2018-03-06T22:38:16.092Z,72.60
2018-03-06T22:40:43.562Z,72.20
2018-03-06T22:43:10.994Z,72.20
2018-03-06T22:45:39.570Z,72.20
2018-03-06T22:48:07.023Z,71.80
2018-03-06T22:50:34.452Z,71.90
2018-03-06T22:53:01.956Z,71.80
2018-03-06T22:55:29.417Z,72.30
2018-03-06T22:57:56.908Z,72.30
2018-03-06T23:00:24.372Z,71.90
2018-03-06T23:02:51.807Z,72.10
2018-03-06T23:05:19.351Z,72.50
2018-03-06T23:07:47.001Z,73.20
2018-03-06T23:10:14.989Z,73.00
2018-03-06T23:12:42.486Z,73.10
2018-03-06T23:15:10.720Z,73.40
2018-03-06T23:17:38.196Z,73.20
2018-03-06T23:20:05.627Z,73.80
2018-03-06T23:22:33.071Z,73.50
2018-03-06T23:25:00.554Z,72.70
2018-03-06T23:27:28.035Z,73.60
2018-03-06T23:29:55.974Z,73.20
2018-03-06T23:32:23.416Z,73.50
2018-03-06T23:34:51.504Z,73.40
2018-03-06T23:37:19.242Z,72.80
2018-03-06T23:39:46.736Z,72.80
2018-03-06T23:42:14.265Z,72.50
2018-03-06T23:44:41.713Z,73.10
2018-03-06T23:47:09.180Z,73.20
2018-03-06T23:49:36.663Z,73.70
2018-03-06T23:52:04.301Z,74.10
2018-03-06T23:54:31.863Z,74.50
2018-03-06T23:56:59.643Z,73.60
2018-03-06T23:59:27.095Z,73.70
